sensor_id;sensor_type;location;lat;lon;timestamp;pressure;altitude;pressure_sealevel;temperature;humidity
13456;BME280;6800;50.940;6.940;2023-05-01T00:02:14;100966.38;;;24.14;30.33
13456;BME280;6800;50.940;6.940;2023-05-01T00:06:17;100967.41;;;24.13;29.42
13456;BME280;6800;50.940;6.940;2023-05-01T00:10:18;100951.69;;;24.02;30.26
13456;BME280;6800;50.940;6.940;2023-05-01T00:14:20;100952.03;;;24.23;29.42
13456;BME280;6800;50.940;6.940;2023-05-01T00:18:21;100948.38;;;24.16;29.87
13456;BME280;6800;50.940;6.940;2023-05-01T00:22:23;100946.69;;;24.31;29.21
13456;BME280;6800;50.940;6.940;2023-05-01T00:26:24;100936.03;;;24.23;29.46
13456;BME280;6800;50.940;6.940;2023-05-01T00:30:33;100931.03;;;24.20;29.73
13456;BME280;6800;50.940;6.940;2023-05-01T00:34:35;100933.66;;;23.88;29.95
13456;BME280;6800;50.940;6.940;2023-05-01T00:38:36;100933.72;;;24.12;29.57
13456;BME280;6800;50.940;6.940;2023-05-01T00:42:38;100932.84;;;23.95;29.74
13456;BME280;6800;50.940;6.940;2023-05-01T00:46:40;100924.69;;;23.97;29.79
13456;BME280;6800;50.940;6.940;2023-05-01T00:50:44;100921.69;;;24.00;30.15
13456;BME280;6800;50.940;6.940;2023-05-01T00:54:46;100919.69;;;23.94;29.78
13456;BME280;6800;50.940;6.940;2023-05-01T00:58:52;100919.03;;;23.92;29.90
13456;BME280;6800;50.940;6.940;2023-05-01T01:02:54;100908.66;;;23.57;30.80
13456;BME280;6800;50.940;6.940;2023-05-01T01:07:18;100907.66;;;23.82;29.81
13456;BME280;6800;50.940;6.940;2023-05-01T01:11:31;100894.16;;;24.16;29.73
13456;BME280;6800;50.940;6.940;2023-05-01T01:15:40;100896.00;;;23.99;29.93
13456;BME280;6800;50.940;6.940;2023-05-01T01:20:14;100888.84;;;23.99;29.90
13456;BME280;6800;50.940;6.940;2023-05-01T01:33:22;100879.34;;;23.97;29.75
13456;BME280;6800;50.940;6.940;2023-05-01T01:37:33;100871.00;;;24.00;29.55
13456;BME280;6800;50.940;6.940;2023-05-01T01:41:39;100866.69;;;23.83;29.85
13456;BME280;6800;50.940;6.940;2023-05-01T01:45:52;100865.50;;;23.77;29.52
13456;BME280;6800;50.940;6.940;2023-05-01T01:50:00;100859.34;;;23.85;29.88
13456;BME280;6800;50.940;6.940;2023-05-01T01:54:03;100856.84;;;23.75;30.01
13456;BME280;6800;50.940;6.940;2023-05-01T01:58:08;100848.00;;;23.67;29.77
13456;BME280;6800;50.940;6.940;2023-05-01T02:02:11;100845.22;;;23.60;29.95
13456;BME280;6800;50.940;6.940;2023-05-01T02:06:14;100842.88;;;23.81;29.75
13456;BME280;6800;50.940;6.940;2023-05-01T02:10:16;100841.34;;;23.63;30.08
13456;BME280;6800;50.940;6.940;2023-05-01T02:14:20;100839.53;;;23.63;30.11
13456;BME280;6800;50.940;6.940;2023-05-01T02:18:25;100835.38;;;23.77;30.04
13456;BME280;6800;50.940;6.940;2023-05-01T02:22:29;100831.38;;;23.41;30.40
13456;BME280;6800;50.940;6.940;2023-05-01T02:26:34;100821.72;;;23.56;30.18
13456;BME280;6800;50.940;6.940;2023-05-01T02:30:39;100821.19;;;23.68;30.07
13456;BME280;6800;50.940;6.940;2023-05-01T02:34:40;100816.84;;;23.67;30.38
13456;BME280;6800;50.940;6.940;2023-05-01T02:38:42;100813.50;;;23.73;30.24
13456;BME280;6800;50.940;6.940;2023-05-01T02:42:44;100809.53;;;23.61;30.36
13456;BME280;6800;50.940;6.940;2023-05-01T02:46:48;100795.38;;;23.53;30.36
13456;BME280;6800;50.940;6.940;2023-05-01T02:50:53;100796.53;;;23.58;30.03
13456;BME280;6800;50.940;6.940;2023-05-01T02:54:56;100787.34;;;23.28;30.77
13456;BME280;6800;50.940;6.940;2023-05-01T02:58:58;100779.06;;;23.56;30.53
13456;BME280;6800;50.940;6.940;2023-05-01T03:02:59;100774.88;;;23.05;30.70
13456;BME280;6800;50.940;6.940;2023-05-01T03:07:01;100771.91;;;23.40;31.00
13456;BME280;6800;50.940;6.940;2023-05-01T03:11:06;100774.41;;;23.34;30.63
13456;BME280;6800;50.940;6.940;2023-05-01T03:15:08;100766.75;;;23.39;30.81
13456;BME280;6800;50.940;6.940;2023-05-01T03:19:09;100765.41;;;23.35;30.90
13456;BME280;6800;50.940;6.940;2023-05-01T03:23:11;100761.38;;;23.14;31.11
13456;BME280;6800;50.940;6.940;2023-05-01T03:27:12;100756.25;;;22.55;32.04
13456;BME280;6800;50.940;6.940;2023-05-01T03:31:14;100754.03;;;23.16;31.27
13456;BME280;6800;50.940;6.940;2023-05-01T03:35:15;100748.03;;;22.82;31.60
13456;BME280;6800;50.940;6.940;2023-05-01T03:39:16;100750.38;;;23.01;31.25
13456;BME280;6800;50.940;6.940;2023-05-01T03:43:18;100744.72;;;23.12;31.19
13456;BME280;6800;50.940;6.940;2023-05-01T03:47:19;100737.06;;;23.01;31.76
13456;BME280;6800;50.940;6.940;2023-05-01T03:51:21;100734.75;;;23.06;31.71
13456;BME280;6800;50.940;6.940;2023-05-01T03:55:22;100740.06;;;23.06;31.36
13456;BME280;6800;50.940;6.940;2023-05-01T03:59:23;100740.22;;;22.97;31.49
13456;BME280;6800;50.940;6.940;2023-05-01T04:03:25;100740.69;;;22.84;32.20
13456;BME280;6800;50.940;6.940;2023-05-01T04:07:27;100732.06;;;22.98;32.14
13456;BME280;6800;50.940;6.940;2023-05-01T04:11:28;100735.06;;;22.87;32.13
13456;BME280;6800;50.940;6.940;2023-05-01T04:15:29;100734.03;;;22.72;32.45
13456;BME280;6800;50.940;6.940;2023-05-01T04:19:31;100734.72;;;22.82;32.32
13456;BME280;6800;50.940;6.940;2023-05-01T04:23:32;100728.41;;;22.75;32.55
13456;BME280;6800;50.940;6.940;2023-05-01T04:27:33;100728.22;;;22.61;32.67
13456;BME280;6800;50.940;6.940;2023-05-01T04:31:35;100724.88;;;22.67;32.29
13456;BME280;6800;50.940;6.940;2023-05-01T04:35:37;100731.69;;;22.69;32.40
13456;BME280;6800;50.940;6.940;2023-05-01T04:39:39;100728.31;;;22.51;32.51
13456;BME280;6800;50.940;6.940;2023-05-01T04:43:40;100725.72;;;22.75;32.33
13456;BME280;6800;50.940;6.940;2023-05-01T04:47:42;100725.06;;;22.73;32.16
13456;BME280;6800;50.940;6.940;2023-05-01T04:51:44;100727.91;;;22.88;31.79
13456;BME280;6800;50.940;6.940;2023-05-01T04:55:46;100728.69;;;22.64;32.18
13456;BME280;6800;50.940;6.940;2023-05-01T04:59:47;100727.25;;;22.86;32.00
13456;BME280;6800;50.940;6.940;2023-05-01T05:03:48;100737.91;;;22.94;32.30
13456;BME280;6800;50.940;6.940;2023-05-01T05:07:50;100736.41;;;22.99;31.91
13456;BME280;6800;50.940;6.940;2023-05-01T05:11:52;100732.75;;;23.08;31.60
13456;BME280;6800;50.940;6.940;2023-05-01T05:15:53;100731.25;;;22.98;31.75
13456;BME280;6800;50.940;6.940;2023-05-01T05:19:55;100735.41;;;23.08;31.87
13456;BME280;6800;50.940;6.940;2023-05-01T05:23:57;100724.09;;;23.14;31.59
13456;BME280;6800;50.940;6.940;2023-05-01T05:27:58;100727.06;;;23.03;31.53
13456;BME280;6800;50.940;6.940;2023-05-01T05:32:00;100730.94;;;23.33;31.16
13456;BME280;6800;50.940;6.940;2023-05-01T05:36:02;100723.69;;;23.74;30.89
13456;BME280;6800;50.940;6.940;2023-05-01T05:40:04;100731.44;;;23.37;31.08
13456;BME280;6800;50.940;6.940;2023-05-01T05:44:05;100733.91;;;23.62;30.72
13456;BME280;6800;50.940;6.940;2023-05-01T05:48:07;100726.00;;;23.85;30.42
13456;BME280;6800;50.940;6.940;2023-05-01T05:52:08;100718.94;;;24.08;30.38
13456;BME280;6800;50.940;6.940;2023-05-01T05:56:10;100722.38;;;24.25;29.44
13456;BME280;6800;50.940;6.940;2023-05-01T06:00:11;100713.69;;;24.61;29.44
13456;BME280;6800;50.940;6.940;2023-05-01T06:04:13;100715.09;;;24.49;29.19
13456;BME280;6800;50.940;6.940;2023-05-01T06:08:15;100725.97;;;24.70;29.27
13456;BME280;6800;50.940;6.940;2023-05-01T06:12:17;100714.91;;;24.73;29.48
13456;BME280;6800;50.940;6.940;2023-05-01T06:16:18;100720.97;;;24.67;28.89
13456;BME280;6800;50.940;6.940;2023-05-01T06:20:20;100713.31;;;24.64;29.51
13456;BME280;6800;50.940;6.940;2023-05-01T06:24:21;100708.94;;;24.71;29.08
13456;BME280;6800;50.940;6.940;2023-05-01T06:28:23;100705.59;;;24.69;29.31
13456;BME280;6800;50.940;6.940;2023-05-01T06:32:24;100709.78;;;25.17;28.65
13456;BME280;6800;50.940;6.940;2023-05-01T06:36:25;100712.19;;;24.90;29.15
13456;BME280;6800;50.940;6.940;2023-05-01T06:40:27;100706.63;;;25.14;28.80
13456;BME280;6800;50.940;6.940;2023-05-01T06:44:31;100707.03;;;25.03;28.88
13456;BME280;6800;50.940;6.940;2023-05-01T06:48:33;100709.31;;;24.91;28.69
13456;BME280;6800;50.940;6.940;2023-05-01T06:52:34;100714.06;;;25.04;28.85
13456;BME280;6800;50.940;6.940;2023-05-01T06:56:36;100702.97;;;24.92;29.47
13456;BME280;6800;50.940;6.940;2023-05-01T07:00:37;100703.47;;;24.65;29.14
13456;BME280;6800;50.940;6.940;2023-05-01T07:04:39;100707.69;;;24.59;29.82
13456;BME280;6800;50.940;6.940;2023-05-01T07:08:40;100710.69;;;23.79;30.63
13456;BME280;6800;50.940;6.940;2023-05-01T07:12:41;100703.31;;;24.36;30.42
13456;BME280;6800;50.940;6.940;2023-05-01T07:16:43;100701.91;;;24.48;30.54
13456;BME280;6800;50.940;6.940;2023-05-01T07:20:44;100700.06;;;24.71;30.12
13456;BME280;6800;50.940;6.940;2023-05-01T07:24:46;100703.13;;;24.91;29.50
13456;BME280;6800;50.940;6.940;2023-05-01T07:28:47;100701.53;;;24.28;29.98
13456;BME280;6800;50.940;6.940;2023-05-01T07:32:48;100693.19;;;25.74;27.99
13456;BME280;6800;50.940;6.940;2023-05-01T07:36:50;100683.22;;;25.82;28.23
13456;BME280;6800;50.940;6.940;2023-05-01T07:40:52;100680.75;;;26.46;27.04
13456;BME280;6800;50.940;6.940;2023-05-01T07:44:54;100679.66;;;26.76;26.74
13456;BME280;6800;50.940;6.940;2023-05-01T07:49:06;100684.31;;;25.88;27.52
13456;BME280;6800;50.940;6.940;2023-05-01T07:53:08;100681.47;;;26.18;26.81
13456;BME280;6800;50.940;6.940;2023-05-01T07:57:09;100677.94;;;26.03;27.25
13456;BME280;6800;50.940;6.940;2023-05-01T08:01:11;100686.00;;;25.74;27.69
13456;BME280;6800;50.940;6.940;2023-05-01T08:05:12;100683.50;;;25.87;27.40
13456;BME280;6800;50.940;6.940;2023-05-01T08:09:14;100690.50;;;24.31;29.72
13456;BME280;6800;50.940;6.940;2023-05-01T08:13:15;100688.25;;;25.33;28.42
13456;BME280;6800;50.940;6.940;2023-05-01T08:17:17;100687.22;;;26.37;26.92
13456;BME280;6800;50.940;6.940;2023-05-01T08:21:18;100688.63;;;26.89;26.32
13456;BME280;6800;50.940;6.940;2023-05-01T08:25:20;100693.38;;;26.52;26.34
13456;BME280;6800;50.940;6.940;2023-05-01T08:29:21;100683.91;;;27.19;26.23
13456;BME280;6800;50.940;6.940;2023-05-01T08:33:23;100690.22;;;26.84;26.05
13456;BME280;6800;50.940;6.940;2023-05-01T08:37:24;100674.63;;;27.43;25.52
13456;BME280;6800;50.940;6.940;2023-05-01T08:41:26;100667.47;;;28.25;24.60
13456;BME280;6800;50.940;6.940;2023-05-01T08:45:32;100678.53;;;27.40;25.24
13456;BME280;6800;50.940;6.940;2023-05-01T08:49:36;100680.91;;;27.29;25.25
13456;BME280;6800;50.940;6.940;2023-05-01T08:53:40;100680.28;;;26.78;26.01
13456;BME280;6800;50.940;6.940;2023-05-01T08:57:46;100674.75;;;26.65;26.42
13456;BME280;6800;50.940;6.940;2023-05-01T09:01:48;100676.31;;;27.44;25.48
13456;BME280;6800;50.940;6.940;2023-05-01T09:05:52;100675.06;;;27.80;24.93
13456;BME280;6800;50.940;6.940;2023-05-01T09:09:53;100671.09;;;28.71;24.06
13456;BME280;6800;50.940;6.940;2023-05-01T09:13:55;100664.91;;;28.71;23.89
13456;BME280;6800;50.940;6.940;2023-05-01T09:17:59;100661.94;;;28.39;24.89
13456;BME280;6800;50.940;6.940;2023-05-01T09:22:04;100667.47;;;28.25;24.90
13456;BME280;6800;50.940;6.940;2023-05-01T09:26:06;100672.72;;;28.59;24.15
13456;BME280;6800;50.940;6.940;2023-05-01T09:30:08;100668.44;;;29.10;24.25
13456;BME280;6800;50.940;6.940;2023-05-01T09:34:10;100671.06;;;29.76;23.01
13456;BME280;6800;50.940;6.940;2023-05-01T09:38:16;100676.25;;;30.28;22.94
13456;BME280;6800;50.940;6.940;2023-05-01T09:42:22;100671.34;;;30.56;22.05
13456;BME280;6800;50.940;6.940;2023-05-01T09:46:25;100667.59;;;30.89;22.14
13456;BME280;6800;50.940;6.940;2023-05-01T09:50:29;100676.84;;;29.86;23.00
13456;BME280;6800;50.940;6.940;2023-05-01T09:54:31;100660.03;;;30.72;22.06
13456;BME280;6800;50.940;6.940;2023-05-01T09:58:32;100663.06;;;29.30;24.13
13456;BME280;6800;50.940;6.940;2023-05-01T10:02:33;100655.78;;;31.14;21.57
13456;BME280;6800;50.940;6.940;2023-05-01T10:06:35;100649.53;;;32.41;20.71
13456;BME280;6800;50.940;6.940;2023-05-01T10:10:37;100645.53;;;34.12;18.60
13456;BME280;6800;50.940;6.940;2023-05-01T10:14:50;100650.03;;;33.95;18.85
13456;BME280;6800;50.940;6.940;2023-05-01T10:18:54;100643.00;;;34.50;17.87
13456;BME280;6800;50.940;6.940;2023-05-01T10:22:55;100646.31;;;35.95;17.31
13456;BME280;6800;50.940;6.940;2023-05-01T10:26:57;100636.75;;;35.49;17.30
13456;BME280;6800;50.940;6.940;2023-05-01T10:31:00;100626.00;;;36.83;15.84
13456;BME280;6800;50.940;6.940;2023-05-01T10:35:17;100619.50;;;36.52;15.75
13456;BME280;6800;50.940;6.940;2023-05-01T10:43:31;100608.28;;;37.64;14.55
13456;BME280;6800;50.940;6.940;2023-05-01T10:56:00;100596.31;;;35.96;15.79
13456;BME280;6800;50.940;6.940;2023-05-01T11:08:31;100600.44;;;35.00;16.28
13456;BME280;6800;50.940;6.940;2023-05-01T11:12:46;100603.56;;;34.76;16.47
13456;BME280;6800;50.940;6.940;2023-05-01T11:16:48;100601.16;;;35.51;15.64
13456;BME280;6800;50.940;6.940;2023-05-01T11:20:50;100591.25;;;33.21;18.10
13456;BME280;6800;50.940;6.940;2023-05-01T11:24:51;100596.44;;;34.41;16.96
13456;BME280;6800;50.940;6.940;2023-05-01T11:28:54;100600.19;;;34.69;17.32
13456;BME280;6800;50.940;6.940;2023-05-01T11:32:55;100588.22;;;36.01;15.73
13456;BME280;6800;50.940;6.940;2023-05-01T11:36:57;100591.81;;;36.07;16.01
13456;BME280;6800;50.940;6.940;2023-05-01T11:40:59;100581.50;;;36.09;15.64
13456;BME280;6800;50.940;6.940;2023-05-01T11:45:09;100589.16;;;35.08;16.27
13456;BME280;6800;50.940;6.940;2023-05-01T11:49:13;100592.31;;;34.39;17.32
13456;BME280;6800;50.940;6.940;2023-05-01T11:53:15;100593.88;;;34.63;16.86
13456;BME280;6800;50.940;6.940;2023-05-01T11:57:16;100585.84;;;34.40;16.87
13456;BME280;6800;50.940;6.940;2023-05-01T12:01:20;100585.84;;;34.40;17.18
13456;BME280;6800;50.940;6.940;2023-05-01T12:05:22;100584.63;;;34.64;16.24
13456;BME280;6800;50.940;6.940;2023-05-01T12:09:25;100577.25;;;34.15;17.02
13456;BME280;6800;50.940;6.940;2023-05-01T12:13:29;100577.66;;;34.68;16.96
13456;BME280;6800;50.940;6.940;2023-05-01T12:17:31;100578.41;;;33.91;17.94
13456;BME280;6800;50.940;6.940;2023-05-01T12:21:35;100570.00;;;33.64;17.63
13456;BME280;6800;50.940;6.940;2023-05-01T12:25:38;100565.19;;;33.43;18.32
13456;BME280;6800;50.940;6.940;2023-05-01T12:29:40;100573.56;;;32.83;18.08
13456;BME280;6800;50.940;6.940;2023-05-01T12:33:52;100570.81;;;34.04;17.44
13456;BME280;6800;50.940;6.940;2023-05-01T12:37:54;100568.72;;;33.95;17.20
13456;BME280;6800;50.940;6.940;2023-05-01T12:41:56;100560.84;;;33.53;17.66
13456;BME280;6800;50.940;6.940;2023-05-01T12:45:58;100554.41;;;33.83;18.18
13456;BME280;6800;50.940;6.940;2023-05-01T12:50:02;100562.78;;;33.98;17.46
13456;BME280;6800;50.940;6.940;2023-05-01T12:54:03;100560.91;;;34.10;17.10
13456;BME280;6800;50.940;6.940;2023-05-01T12:58:05;100556.81;;;33.67;17.09
13456;BME280;6800;50.940;6.940;2023-05-01T13:02:08;100557.19;;;33.36;16.75
13456;BME280;6800;50.940;6.940;2023-05-01T13:06:13;100551.28;;;31.76;18.22
13456;BME280;6800;50.940;6.940;2023-05-01T13:10:28;100546.94;;;31.75;19.69
13456;BME280;6800;50.940;6.940;2023-05-01T13:14:38;100547.59;;;32.59;18.06
13456;BME280;6800;50.940;6.940;2023-05-01T13:18:51;100544.78;;;32.66;17.44
13456;BME280;6800;50.940;6.940;2023-05-01T13:22:53;100542.66;;;32.91;17.41
13456;BME280;6800;50.940;6.940;2023-05-01T13:26:56;100540.16;;;33.24;17.40
13456;BME280;6800;50.940;6.940;2023-05-01T13:30:59;100544.00;;;33.51;17.04
13456;BME280;6800;50.940;6.940;2023-05-01T13:35:01;100540.13;;;33.59;17.28
13456;BME280;6800;50.940;6.940;2023-05-01T13:39:02;100548.31;;;33.01;17.24
13456;BME280;6800;50.940;6.940;2023-05-01T13:43:12;100539.97;;;33.14;17.31
13456;BME280;6800;50.940;6.940;2023-05-01T13:47:15;100543.72;;;33.13;16.57
13456;BME280;6800;50.940;6.940;2023-05-01T13:51:22;100551.72;;;32.85;16.54
13456;BME280;6800;50.940;6.940;2023-05-01T13:55:24;100557.78;;;31.86;19.49
13456;BME280;6800;50.940;6.940;2023-05-01T13:59:31;100575.31;;;29.93;23.71
13456;BME280;6800;50.940;6.940;2023-05-01T14:03:39;100579.03;;;30.30;24.34
13456;BME280;6800;50.940;6.940;2023-05-01T14:07:55;100583.88;;;30.15;25.09
13456;BME280;6800;50.940;6.940;2023-05-01T14:11:57;100582.59;;;28.83;26.65
13456;BME280;6800;50.940;6.940;2023-05-01T14:15:58;100590.22;;;28.53;28.22
13456;BME280;6800;50.940;6.940;2023-05-01T14:20:00;100604.81;;;28.11;31.38
13456;BME280;6800;50.940;6.940;2023-05-01T14:24:02;100614.22;;;27.88;32.00
13456;BME280;6800;50.940;6.940;2023-05-01T14:28:05;100626.47;;;27.00;32.16
13456;BME280;6800;50.940;6.940;2023-05-01T14:32:09;100638.69;;;26.82;34.01
13456;BME280;6800;50.940;6.940;2023-05-01T14:36:11;100651.16;;;24.78;34.74
13456;BME280;6800;50.940;6.940;2023-05-01T14:40:13;100666.53;;;25.66;32.29
13456;BME280;6800;50.940;6.940;2023-05-01T14:44:17;100680.63;;;26.03;32.94
13456;BME280;6800;50.940;6.940;2023-05-01T14:48:21;100705.47;;;25.31;36.11
13456;BME280;6800;50.940;6.940;2023-05-01T14:52:23;100730.25;;;25.62;37.33
13456;BME280;6800;50.940;6.940;2023-05-01T14:56:25;100718.22;;;26.10;38.46
13456;BME280;6800;50.940;6.940;2023-05-01T15:00:26;100725.84;;;25.69;38.72
13456;BME280;6800;50.940;6.940;2023-05-01T15:04:28;100736.28;;;25.79;38.70
13456;BME280;6800;50.940;6.940;2023-05-01T15:08:29;100729.16;;;25.71;39.61
13456;BME280;6800;50.940;6.940;2023-05-01T15:12:32;100732.97;;;25.77;39.90
13456;BME280;6800;50.940;6.940;2023-05-01T15:16:33;100736.28;;;25.79;40.01
13456;BME280;6800;50.940;6.940;2023-05-01T15:20:35;100738.78;;;25.43;40.18
13456;BME280;6800;50.940;6.940;2023-05-01T15:24:37;100730.28;;;25.77;39.44
13456;BME280;6800;50.940;6.940;2023-05-01T15:28:39;100726.56;;;25.48;39.49
13456;BME280;6800;50.940;6.940;2023-05-01T15:32:40;100722.81;;;25.72;39.13
13456;BME280;6800;50.940;6.940;2023-05-01T15:36:42;100730.41;;;25.46;40.12
13456;BME280;6800;50.940;6.940;2023-05-01T15:40:44;100724.09;;;25.39;39.29
13456;BME280;6800;50.940;6.940;2023-05-01T15:44:46;100714.69;;;25.51;38.18
13456;BME280;6800;50.940;6.940;2023-05-01T15:48:48;100716.06;;;25.47;38.85
13456;BME280;6800;50.940;6.940;2023-05-01T15:52:50;100712.28;;;25.71;38.78
13456;BME280;6800;50.940;6.940;2023-05-01T15:56:52;100710.56;;;25.03;40.08
13456;BME280;6800;50.940;6.940;2023-05-01T16:00:54;100726.59;;;25.40;39.75
13456;BME280;6800;50.940;6.940;2023-05-01T16:04:55;100721.97;;;25.57;40.23
13456;BME280;6800;50.940;6.940;2023-05-01T16:08:57;100723.03;;;25.48;41.70
13456;BME280;6800;50.940;6.940;2023-05-01T16:13:00;100720.03;;;25.80;41.42
13456;BME280;6800;50.940;6.940;2023-05-01T16:17:03;100730.41;;;26.12;40.76
13456;BME280;6800;50.940;6.940;2023-05-01T16:21:05;100733.88;;;26.27;39.47
13456;BME280;6800;50.940;6.940;2023-05-01T16:25:09;100725.22;;;26.11;39.04
13456;BME280;6800;50.940;6.940;2023-05-01T16:29:11;100734.44;;;26.59;39.68
13456;BME280;6800;50.940;6.940;2023-05-01T16:33:16;100745.84;;;26.46;39.25
13456;BME280;6800;50.940;6.940;2023-05-01T16:37:20;100759.84;;;26.63;39.74
13456;BME280;6800;50.940;6.940;2023-05-01T16:41:24;100769.59;;;25.91;40.67
13456;BME280;6800;50.940;6.940;2023-05-01T16:45:26;100770.34;;;26.28;40.12
13456;BME280;6800;50.940;6.940;2023-05-01T16:49:28;100773.84;;;26.00;39.81
13456;BME280;6800;50.940;6.940;2023-05-01T16:53:29;100766.63;;;26.00;39.46
13456;BME280;6800;50.940;6.940;2023-05-01T16:57:32;100773.13;;;25.69;39.59
13456;BME280;6800;50.940;6.940;2023-05-01T17:01:33;100772.06;;;25.92;38.24
13456;BME280;6800;50.940;6.940;2023-05-01T17:05:35;100772.06;;;25.92;38.35
13456;BME280;6800;50.940;6.940;2023-05-01T17:09:37;100767.53;;;26.07;38.98
13456;BME280;6800;50.940;6.940;2023-05-01T17:13:38;100773.72;;;25.79;39.78
13456;BME280;6800;50.940;6.940;2023-05-01T17:17:39;100775.56;;;25.64;39.82
13456;BME280;6800;50.940;6.940;2023-05-01T17:21:41;100778.25;;;25.78;40.11
13456;BME280;6800;50.940;6.940;2023-05-01T17:25:43;100767.72;;;25.39;40.18
13456;BME280;6800;50.940;6.940;2023-05-01T17:29:45;100770.53;;;25.23;39.37
13456;BME280;6800;50.940;6.940;2023-05-01T17:33:46;100771.41;;;25.38;39.26
13456;BME280;6800;50.940;6.940;2023-05-01T17:37:48;100765.72;;;25.19;38.48
13456;BME280;6800;50.940;6.940;2023-05-01T17:41:50;100766.81;;;24.48;39.00
13456;BME280;6800;50.940;6.940;2023-05-01T17:45:51;100773.78;;;24.88;38.86
13456;BME280;6800;50.940;6.940;2023-05-01T17:49:53;100783.38;;;24.66;38.43
13456;BME280;6800;50.940;6.940;2023-05-01T17:53:54;100773.53;;;24.75;39.22
13456;BME280;6800;50.940;6.940;2023-05-01T17:57:55;100776.06;;;24.60;39.46
13456;BME280;6800;50.940;6.940;2023-05-01T18:01:57;100783.66;;;24.49;39.56
13456;BME280;6800;50.940;6.940;2023-05-01T18:06:00;100795.28;;;24.56;39.97
13456;BME280;6800;50.940;6.940;2023-05-01T18:10:02;100796.00;;;24.50;40.17
13456;BME280;6800;50.940;6.940;2023-05-01T18:14:04;100792.53;;;24.41;40.75
13456;BME280;6800;50.940;6.940;2023-05-01T18:18:05;100799.16;;;24.45;40.69
13456;BME280;6800;50.940;6.940;2023-05-01T18:22:07;100805.94;;;24.25;40.90
13456;BME280;6800;50.940;6.940;2023-05-01T18:26:09;100809.59;;;24.24;41.53
13456;BME280;6800;50.940;6.940;2023-05-01T18:30:10;100811.94;;;24.27;41.28
13456;BME280;6800;50.940;6.940;2023-05-01T18:34:12;100811.28;;;24.25;41.15
13456;BME280;6800;50.940;6.940;2023-05-01T18:38:13;100811.97;;;24.19;41.48
13456;BME280;6800;50.940;6.940;2023-05-01T18:42:14;100817.66;;;24.08;41.51
13456;BME280;6800;50.940;6.940;2023-05-01T18:46:16;100821.50;;;23.89;41.42
13456;BME280;6800;50.940;6.940;2023-05-01T18:50:18;100829.19;;;23.76;41.28
13456;BME280;6800;50.940;6.940;2023-05-01T18:54:22;100827.50;;;23.75;41.03
13456;BME280;6800;50.940;6.940;2023-05-01T18:58:23;100840.84;;;23.67;41.61
13456;BME280;6800;50.940;6.940;2023-05-01T19:02:24;100842.69;;;23.59;41.55
13456;BME280;6800;50.940;6.940;2023-05-01T19:06:26;100855.19;;;23.42;42.27
13456;BME280;6800;50.940;6.940;2023-05-01T19:10:27;100863.66;;;23.46;42.15
13456;BME280;6800;50.940;6.940;2023-05-01T19:14:29;100865.66;;;23.36;42.29
13456;BME280;6800;50.940;6.940;2023-05-01T19:18:30;100861.34;;;23.35;42.62
13456;BME280;6800;50.940;6.940;2023-05-01T19:22:33;100871.25;;;23.24;42.35
13456;BME280;6800;50.940;6.940;2023-05-01T19:26:34;100868.47;;;23.26;42.38
13456;BME280;6800;50.940;6.940;2023-05-01T19:30:36;100868.09;;;23.21;42.60
13456;BME280;6800;50.940;6.940;2023-05-01T19:34:37;100875.59;;;23.17;42.63
13456;BME280;6800;50.940;6.940;2023-05-01T19:38:38;100878.41;;;23.16;42.82
13456;BME280;6800;50.940;6.940;2023-05-01T19:42:40;100878.88;;;23.03;42.97
13456;BME280;6800;50.940;6.940;2023-05-01T19:46:41;100886.06;;;23.11;43.08
13456;BME280;6800;50.940;6.940;2023-05-01T19:50:43;100896.72;;;23.03;43.53
13456;BME280;6800;50.940;6.940;2023-05-01T19:54:50;100898.84;;;23.07;42.88
13456;BME280;6800;50.940;6.940;2023-05-01T19:58:52;100904.16;;;22.91;43.59
13456;BME280;6800;50.940;6.940;2023-05-01T20:02:54;100907.50;;;23.01;43.12
13456;BME280;6800;50.940;6.940;2023-05-01T20:06:56;100902.50;;;22.98;43.16
13456;BME280;6800;50.940;6.940;2023-05-01T20:10:57;100915.09;;;22.88;43.62
13456;BME280;6800;50.940;6.940;2023-05-01T20:14:59;100914.59;;;22.85;43.43
13456;BME280;6800;50.940;6.940;2023-05-01T20:19:01;100928.53;;;22.71;43.88
13456;BME280;6800;50.940;6.940;2023-05-01T20:23:16;100923.66;;;22.66;43.26
13456;BME280;6800;50.940;6.940;2023-05-01T20:27:19;100936.59;;;22.61;43.62
13456;BME280;6800;50.940;6.940;2023-05-01T20:31:20;100935.03;;;22.76;43.22
13456;BME280;6800;50.940;6.940;2023-05-01T20:35:22;100927.75;;;22.86;42.93
13456;BME280;6800;50.940;6.940;2023-05-01T20:39:23;100931.50;;;22.68;43.34
13456;BME280;6800;50.940;6.940;2023-05-01T20:43:25;100940.13;;;22.62;43.54
13456;BME280;6800;50.940;6.940;2023-05-01T20:47:26;100935.22;;;22.83;42.92
13456;BME280;6800;50.940;6.940;2023-05-01T20:51:29;100929.03;;;22.74;42.63
13456;BME280;6800;50.940;6.940;2023-05-01T20:55:32;100943.97;;;22.67;43.06
13456;BME280;6800;50.940;6.940;2023-05-01T20:59:33;100949.25;;;22.59;42.71
13456;BME280;6800;50.940;6.940;2023-05-01T21:03:35;100947.31;;;22.43;43.00
13456;BME280;6800;50.940;6.940;2023-05-01T21:07:37;100947.00;;;22.54;43.20
13456;BME280;6800;50.940;6.940;2023-05-01T21:11:39;100949.81;;;22.45;42.82
13456;BME280;6800;50.940;6.940;2023-05-01T21:15:41;100957.06;;;22.35;42.68
13456;BME280;6800;50.940;6.940;2023-05-01T21:19:45;100953.22;;;22.37;42.68
13456;BME280;6800;50.940;6.940;2023-05-01T21:23:46;100963.47;;;22.24;42.72
13456;BME280;6800;50.940;6.940;2023-05-01T21:27:49;100965.28;;;22.24;42.42
13456;BME280;6800;50.940;6.940;2023-05-01T21:31:51;100970.91;;;22.21;43.06
13456;BME280;6800;50.940;6.940;2023-05-01T21:35:52;100974.56;;;22.20;42.64
13456;BME280;6800;50.940;6.940;2023-05-01T21:39:57;100983.22;;;22.22;43.11
13456;BME280;6800;50.940;6.940;2023-05-01T21:44:02;100989.06;;;22.25;42.77
13456;BME280;6800;50.940;6.940;2023-05-01T21:48:03;100988.91;;;22.27;42.62
13456;BME280;6800;50.940;6.940;2023-05-01T21:52:06;100999.69;;;22.25;42.81
13456;BME280;6800;50.940;6.940;2023-05-01T21:56:09;101002.81;;;22.21;43.14